Terminal Aerodrome Forecast
Issued by NWS

Home | Current Version | Previous Version | Text Only | Print | Product List | Glossary On
Versions: 1 2 3 4 5 6 7 8 9 10 11 12 13 14 15 16 17 18 19 20 21 22 23 24 25 26 27 28 29 30 31 32 33 34 35 36 37 38 39 40
298
FTUS43 KPAH 250713 AAA
TAFOWB
TAF AMD
KOWB 250713Z 2507/2606 33005KT 4SM BR SCT250
      TEMPO 2507/2511 1SM BR SCT004
     FM251300 35007KT P6SM BKN015
     FM251700 35008KT P6SM BKN025
     FM252000 01007KT P6SM SCT035 OVC200
     FM260100 03003KT P6SM FEW035 OVC180=

USA.gov is the U.S. government's official web portal to all federal, state and local government web resources and services.